createdAt,value
2019-04-25T00:01:15.747Z,15.90
2019-04-25T00:06:21.584Z,15.80
2019-04-25T00:11:26.495Z,15.90
2019-04-25T00:16:31.848Z,15.80
2019-04-25T00:21:37.039Z,15.80
2019-04-25T00:26:44.042Z,15.80
2019-04-25T00:31:48.006Z,15.80
2019-04-25T00:36:51.640Z,15.90
2019-04-25T00:41:55.330Z,15.90
2019-04-25T00:46:58.932Z,15.80
2019-04-25T00:52:02.493Z,15.80
2019-04-25T00:57:06.318Z,15.60
2019-04-25T01:02:28.172Z,15.60
2019-04-25T01:07:32.433Z,15.40
2019-04-25T01:12:37.322Z,15.40
2019-04-25T01:17:41.372Z,15.30
2019-04-25T01:22:45.772Z,15.30
2019-04-25T01:27:49.980Z,15.00
2019-04-25T01:32:54.539Z,14.80
2019-04-25T01:38:20.553Z,14.80
2019-04-25T01:43:25.831Z,14.80
2019-04-25T01:48:29.542Z,14.80
2019-04-25T01:53:33.943Z,14.80
2019-04-25T01:58:38.352Z,14.70
2019-04-25T02:03:42.091Z,14.70
2019-04-25T02:08:45.740Z,14.50
2019-04-25T02:13:51.284Z,14.60
2019-04-25T02:18:55.526Z,14.60
2019-04-25T02:24:00.199Z,14.50
2019-04-25T02:29:04.715Z,14.50
2019-04-25T02:34:08.827Z,14.50
2019-04-25T02:39:17.704Z,14.50
2019-04-25T02:44:21.480Z,14.50
2019-04-25T02:49:39.213Z,14.40
2019-04-25T02:54:41.155Z,14.30
2019-04-25T02:59:45.212Z,14.20
2019-04-25T03:04:49.000Z,14.10
2019-04-25T03:09:54.755Z,13.90
2019-04-25T03:15:00.055Z,13.80
2019-04-25T03:20:09.442Z,13.70
2019-04-25T03:25:13.667Z,13.50
2019-04-25T03:30:18.253Z,13.60
2019-04-25T03:35:23.203Z,13.50
2019-04-25T03:40:26.879Z,12.50
2019-04-25T03:45:30.475Z,12.40
2019-04-25T03:50:34.899Z,12.70
2019-04-25T03:55:38.620Z,12.70
2019-04-25T04:00:44.710Z,12.60
2019-04-25T04:05:48.546Z,12.20
2019-04-25T04:10:52.151Z,11.90
2019-04-25T04:15:55.863Z,12.30
2019-04-25T04:21:10.007Z,11.70
2019-04-25T04:26:14.503Z,12.40
2019-04-25T04:31:18.162Z,12.90
2019-04-25T04:36:21.799Z,13.60
2019-04-25T04:41:25.451Z,14.00
2019-04-25T04:46:29.056Z,12.30
2019-04-25T04:51:33.617Z,12.80
2019-04-25T04:56:37.320Z,13.60
2019-04-25T05:01:58.863Z,14.30
2019-04-25T05:07:11.009Z,14.20
2019-04-25T05:12:15.270Z,14.80
2019-04-25T05:17:19.744Z,16.30
2019-04-25T05:22:24.348Z,16.00
2019-04-25T05:27:37.549Z,16.00
2019-04-25T05:32:34.274Z,16.20
2019-04-25T05:37:38.067Z,18.00
2019-04-25T05:42:54.210Z,19.00
2019-04-25T05:47:57.946Z,19.60
2019-04-25T05:53:01.649Z,20.10
2019-04-25T05:58:05.452Z,20.50
2019-04-25T06:03:09.017Z,20.90
2019-04-25T06:08:14.156Z,21.50
2019-04-25T06:13:37.779Z,21.80
2019-04-25T06:18:45.926Z,22.10
2019-04-25T06:23:51.171Z,22.50
2019-04-25T06:28:59.482Z,22.30
2019-04-25T06:34:00.087Z,22.50
2019-04-25T06:39:04.429Z,22.00
2019-04-25T06:44:09.811Z,22.90
2019-04-25T06:49:17.576Z,22.40
2019-04-25T06:54:21.978Z,22.20
2019-04-25T06:59:27.597Z,21.70
2019-04-25T07:04:33.671Z,22.20
2019-04-25T07:09:37.151Z,22.50
2019-04-25T07:14:41.600Z,22.30
2019-04-25T07:19:45.296Z,22.50
2019-04-25T07:24:48.951Z,23.10
2019-04-25T07:29:54.255Z,22.60
2019-04-25T07:34:57.961Z,22.30
2019-04-25T07:40:01.746Z,22.30
2019-04-25T07:45:09.840Z,22.50
2019-04-25T07:50:15.369Z,22.10
2019-04-25T07:55:18.907Z,22.30
2019-04-25T08:00:24.523Z,21.90
2019-04-25T08:05:29.490Z,22.20
2019-04-25T08:10:39.613Z,22.50
2019-04-25T08:15:47.466Z,22.40
2019-04-25T08:20:51.208Z,22.70
2019-04-25T08:25:54.997Z,22.50
2019-04-25T08:30:59.005Z,22.80
2019-04-25T08:36:06.669Z,23.10
2019-04-25T08:41:07.959Z,23.30
2019-04-25T08:46:11.699Z,23.40
2019-04-25T08:51:17.051Z,23.60
2019-04-25T08:56:22.291Z,23.00
2019-04-25T09:01:27.611Z,22.90
2019-04-25T09:06:31.771Z,23.20
2019-04-25T09:11:38.048Z,23.60
2019-04-25T09:16:43.855Z,23.80
2019-04-25T09:21:49.470Z,23.00
2019-04-25T09:26:53.929Z,22.80
2019-04-25T09:31:57.775Z,23.50
2019-04-25T09:37:02.760Z,23.60
2019-04-25T09:42:06.971Z,23.80
2019-04-25T09:47:10.760Z,23.70
2019-04-25T09:52:16.063Z,24.20
2019-04-25T09:57:38.877Z,23.90
2019-04-25T10:02:43.311Z,24.00
2019-04-25T10:07:48.900Z,24.80
2019-04-25T10:12:54.527Z,24.50
2019-04-25T10:17:57.827Z,24.50
2019-04-25T10:23:01.588Z,25.10
2019-04-25T10:28:06.830Z,25.20
2019-04-25T10:33:10.664Z,25.90
2019-04-25T10:38:15.176Z,25.10
2019-04-25T10:43:21.557Z,25.30
2019-04-25T10:48:24.317Z,25.00
2019-04-25T10:53:28.009Z,25.80
2019-04-25T10:58:31.651Z,26.50
2019-04-25T11:03:37.140Z,26.00
2019-04-25T11:08:41.700Z,25.80
2019-04-25T11:13:45.403Z,25.60
2019-04-25T11:18:49.635Z,24.70
2019-04-25T11:23:55.163Z,25.90
2019-04-25T11:28:58.810Z,26.60
2019-04-25T11:34:03.567Z,25.60
2019-04-25T11:39:10.854Z,26.10
2019-04-25T11:44:14.799Z,26.80
2019-04-25T11:49:18.540Z,27.30
2019-04-25T11:54:22.150Z,27.20
2019-04-25T11:59:25.803Z,27.40
2019-04-25T12:04:29.547Z,27.80
2019-04-25T12:09:33.697Z,26.00
2019-04-25T12:14:37.328Z,25.80
2019-04-25T12:19:40.988Z,27.20
2019-04-25T12:24:45.802Z,26.40
2019-04-25T12:29:50.152Z,25.50
2019-04-25T12:34:53.784Z,25.60
2019-04-25T12:39:57.388Z,24.80
2019-04-25T12:45:04.076Z,25.50
2019-04-25T12:50:08.698Z,25.30
2019-04-25T12:55:14.579Z,25.60
2019-04-25T13:00:19.094Z,25.60
2019-04-25T13:05:24.456Z,25.90
2019-04-25T13:10:28.196Z,25.50
2019-04-25T13:15:33.438Z,25.30
2019-04-25T13:20:37.357Z,24.90
2019-04-25T13:25:40.992Z,25.10
2019-04-25T13:31:04.123Z,25.40
2019-04-25T13:36:06.194Z,24.60
2019-04-25T13:41:19.229Z,24.50
2019-04-25T13:46:25.172Z,24.60
2019-04-25T13:51:28.399Z,24.20
2019-04-25T13:56:33.399Z,24.00
2019-04-25T14:01:37.571Z,23.70
2019-04-25T14:06:41.229Z,23.50
2019-04-25T14:11:44.837Z,23.70
2019-04-25T14:17:04.897Z,24.10
2019-04-25T14:22:07.544Z,24.20
2019-04-25T14:27:11.739Z,24.40
2019-04-25T14:32:16.135Z,24.40
2019-04-25T14:37:19.871Z,24.80
2019-04-25T14:42:24.444Z,24.70
2019-04-25T14:47:28.223Z,24.40
2019-04-25T14:52:32.048Z,24.20
2019-04-25T14:57:35.807Z,24.20
2019-04-25T15:02:39.489Z,24.40
2019-04-25T15:07:43.139Z,24.50
2019-04-25T15:12:46.867Z,24.50
2019-04-25T15:17:50.699Z,24.70
2019-04-25T15:22:54.358Z,24.60
2019-04-25T15:27:58.012Z,24.60
2019-04-25T15:33:02.085Z,24.80
2019-04-25T15:38:07.501Z,24.30
2019-04-25T15:43:29.039Z,24.20
2019-04-25T15:48:33.264Z,24.30
2019-04-25T15:53:36.993Z,24.40
2019-04-25T15:58:41.607Z,24.40
2019-04-25T16:03:45.359Z,24.60
2019-04-25T16:08:49.386Z,24.60
2019-04-25T16:13:53.311Z,24.60
2019-04-25T16:18:57.237Z,24.40
2019-04-25T16:24:01.316Z,24.30
2019-04-25T16:29:05.454Z,24.20
2019-04-25T16:34:09.248Z,24.10
2019-04-25T16:39:20.587Z,23.80
2019-04-25T16:44:24.403Z,23.90
2019-04-25T16:49:29.849Z,23.70
2019-04-25T16:54:33.858Z,23.50
2019-04-25T16:59:37.758Z,23.40
2019-04-25T17:04:41.722Z,23.30
2019-04-25T17:09:45.531Z,23.20
2019-04-25T17:14:56.833Z,22.90
2019-04-25T17:20:02.232Z,22.90
2019-04-25T17:25:06.663Z,22.80
2019-04-25T17:30:11.795Z,22.60
2019-04-25T17:35:29.140Z,22.30
2019-04-25T17:40:33.848Z,22.20
2019-04-25T17:45:37.569Z,22.10
2019-04-25T17:50:41.785Z,21.60
2019-04-25T17:55:45.380Z,21.70
2019-04-25T18:00:49.223Z,21.40
2019-04-25T18:05:53.547Z,21.40
2019-04-25T18:10:57.314Z,20.90
2019-04-25T18:16:05.128Z,20.50
2019-04-25T18:21:08.762Z,20.30
2019-04-25T18:26:14.040Z,19.90
2019-04-25T18:31:17.737Z,19.80
2019-04-25T18:36:41.227Z,19.80
2019-04-25T18:42:01.612Z,19.90
2019-04-25T18:47:05.520Z,19.90
2019-04-25T18:52:13.360Z,19.80
2019-04-25T18:57:18.716Z,20.00
2019-04-25T19:02:26.851Z,20.20
2019-04-25T19:07:30.864Z,20.20
2019-04-25T19:12:34.610Z,20.10
2019-04-25T19:17:38.849Z,20.20
2019-04-25T19:22:43.842Z,20.10
2019-04-25T19:27:47.675Z,20.20
2019-04-25T19:32:51.590Z,19.80
2019-04-25T19:37:56.381Z,19.60
2019-04-25T19:43:07.483Z,19.50
2019-04-25T19:48:11.202Z,19.60
2019-04-25T19:53:14.904Z,19.40
2019-04-25T19:58:18.695Z,19.40
2019-04-25T20:03:26.667Z,19.20
2019-04-25T20:08:31.908Z,19.10
2019-04-25T20:13:35.714Z,18.90
2019-04-25T20:18:39.301Z,18.80
2019-04-25T20:23:43.616Z,18.60
2019-04-25T20:28:48.476Z,18.60
2019-04-25T20:34:05.148Z,18.50
2019-04-25T20:38:57.527Z,18.60
2019-04-25T20:44:01.089Z,18.50
2019-04-25T20:49:04.732Z,18.20
2019-04-25T20:54:08.435Z,18.00
2019-04-25T20:59:12.040Z,17.60
2019-04-25T21:04:19.869Z,17.50
2019-04-25T21:09:23.636Z,17.70
2019-04-25T21:14:31.740Z,17.50
2019-04-25T21:19:39.552Z,17.30
2019-04-25T21:24:43.165Z,16.50
2019-04-25T21:29:46.899Z,16.70
2019-04-25T21:34:50.758Z,17.10
2019-04-25T21:39:57.277Z,17.30
2019-04-25T21:45:02.713Z,17.40
2019-04-25T21:50:07.431Z,17.40
2019-04-25T21:55:11.488Z,17.40
2019-04-25T22:00:17.580Z,17.40
2019-04-25T22:05:21.516Z,17.50
2019-04-25T22:10:26.456Z,17.50
2019-04-25T22:15:30.163Z,17.50
2019-04-25T22:20:34.216Z,17.50
2019-04-25T22:25:37.963Z,17.60
2019-04-25T22:30:43.870Z,17.60
2019-04-25T22:35:49.128Z,17.50
2019-04-25T22:40:53.668Z,17.40
2019-04-25T22:45:57.628Z,17.40
2019-04-25T22:51:01.747Z,17.20
2019-04-25T22:56:05.443Z,17.20
2019-04-25T23:01:11.239Z,17.00
2019-04-25T23:06:14.977Z,16.90
2019-04-25T23:11:18.623Z,17.00
2019-04-25T23:16:22.507Z,17.80
2019-04-25T23:21:26.143Z,18.00
2019-04-25T23:26:31.435Z,17.80
2019-04-25T23:31:39.107Z,17.30
2019-04-25T23:36:42.996Z,17.20
2019-04-25T23:41:46.598Z,17.00
2019-04-25T23:46:50.303Z,17.00
2019-04-25T23:51:53.888Z,16.80
2019-04-25T23:56:57.598Z,16.70
